sensor_id;sensor_type;location;lat;lon;timestamp;pressure;altitude;pressure_sealevel;temperature;humidity
57827;BME280;43656;57.746;11.780;2023-05-20T00:00:07;102980.91;;;12.16;89.10
57827;BME280;43656;57.746;11.780;2023-05-20T00:02:34;102982.06;;;12.14;89.25
57827;BME280;43656;57.746;11.780;2023-05-20T00:04:59;102968.97;;;12.01;88.72
57827;BME280;43656;57.746;11.780;2023-05-20T00:07:25;102992.94;;;12.04;88.75
57827;BME280;43656;57.746;11.780;2023-05-20T00:09:50;102961.88;;;11.82;89.01
57827;BME280;43656;57.746;11.780;2023-05-20T00:12:16;102979.38;;;11.96;88.69
57827;BME280;43656;57.746;11.780;2023-05-20T00:14:42;102963.28;;;11.86;89.24
57827;BME280;43656;57.746;11.780;2023-05-20T00:17:07;102985.75;;;11.95;89.06
57827;BME280;43656;57.746;11.780;2023-05-20T00:19:33;102984.56;;;11.89;89.10
57827;BME280;43656;57.746;11.780;2023-05-20T00:21:58;102968.00;;;11.74;89.08
57827;BME280;43656;57.746;11.780;2023-05-20T00:24:24;102984.16;;;11.84;89.30
57827;BME280;43656;57.746;11.780;2023-05-20T00:26:49;102996.50;;;11.87;89.31
57827;BME280;43656;57.746;11.780;2023-05-20T00:29:15;102987.25;;;11.89;89.81
57827;BME280;43656;57.746;11.780;2023-05-20T00:31:40;102996.09;;;11.99;89.80
57827;BME280;43656;57.746;11.780;2023-05-20T00:34:06;102989.88;;;11.99;89.96
57827;BME280;43656;57.746;11.780;2023-05-20T00:36:32;102974.44;;;11.91;89.42
57827;BME280;43656;57.746;11.780;2023-05-20T00:38:58;102983.56;;;11.81;89.69
57827;BME280;43656;57.746;11.780;2023-05-20T00:41:23;102977.72;;;11.67;89.64
57827;BME280;43656;57.746;11.780;2023-05-20T00:43:55;102961.47;;;11.59;89.69
57827;BME280;43656;57.746;11.780;2023-05-20T00:46:22;102977.34;;;11.62;89.90
57827;BME280;43656;57.746;11.780;2023-05-20T00:48:48;102978.63;;;11.58;89.52
57827;BME280;43656;57.746;11.780;2023-05-20T00:51:14;102977.25;;;11.54;89.63
57827;BME280;43656;57.746;11.780;2023-05-20T00:53:41;102975.84;;;11.50;89.08
57827;BME280;43656;57.746;11.780;2023-05-20T00:56:07;102974.00;;;11.50;89.36
57827;BME280;43656;57.746;11.780;2023-05-20T00:58:33;102979.69;;;11.47;89.86
57827;BME280;43656;57.746;11.780;2023-05-20T01:01:01;102982.03;;;11.42;89.83
57827;BME280;43656;57.746;11.780;2023-05-20T01:03:27;102979.22;;;11.34;89.71
57827;BME280;43656;57.746;11.780;2023-05-20T01:05:53;102978.13;;;11.27;90.23
57827;BME280;43656;57.746;11.780;2023-05-20T01:08:19;102975.88;;;11.22;89.89
57827;BME280;43656;57.746;11.780;2023-05-20T01:10:46;102959.91;;;11.11;89.94
57827;BME280;43656;57.746;11.780;2023-05-20T01:13:19;102972.31;;;11.22;89.76
57827;BME280;43656;57.746;11.780;2023-05-20T01:15:47;102971.34;;;11.23;90.10
57827;BME280;43656;57.746;11.780;2023-05-20T01:18:13;102917.63;;;10.94;89.79
57827;BME280;43656;57.746;11.780;2023-05-20T01:20:52;102963.03;;;11.16;89.80
57827;BME280;43656;57.746;11.780;2023-05-20T01:23:19;102971.81;;;11.09;89.96
57827;BME280;43656;57.746;11.780;2023-05-20T01:25:44;102967.91;;;11.03;90.13
57827;BME280;43656;57.746;11.780;2023-05-20T01:28:09;102975.28;;;11.01;89.83
57827;BME280;43656;57.746;11.780;2023-05-20T01:30:45;102978.38;;;11.06;90.01
57827;BME280;43656;57.746;11.780;2023-05-20T01:33:14;102972.88;;;10.98;90.16
57827;BME280;43656;57.746;11.780;2023-05-20T01:35:41;102980.22;;;11.05;90.39
57827;BME280;43656;57.746;11.780;2023-05-20T01:38:07;102970.94;;;10.90;90.18
57827;BME280;43656;57.746;11.780;2023-05-20T01:40:33;102987.19;;;10.98;90.53
57827;BME280;43656;57.746;11.780;2023-05-20T01:43:00;102986.22;;;10.99;90.80
57827;BME280;43656;57.746;11.780;2023-05-20T01:45:27;102989.03;;;10.98;90.89
57827;BME280;43656;57.746;11.780;2023-05-20T01:47:52;102975.78;;;10.87;90.43
57827;BME280;43656;57.746;11.780;2023-05-20T01:50:18;102983.69;;;10.88;90.80
57827;BME280;43656;57.746;11.780;2023-05-20T01:52:43;102969.03;;;10.73;90.29
57827;BME280;43656;57.746;11.780;2023-05-20T01:55:09;102976.66;;;10.77;90.40
57827;BME280;43656;57.746;11.780;2023-05-20T01:57:35;102986.13;;;10.81;90.65
57827;BME280;43656;57.746;11.780;2023-05-20T02:00:01;102979.19;;;10.79;91.14
57827;BME280;43656;57.746;11.780;2023-05-20T02:02:28;102991.38;;;10.83;90.71
57827;BME280;43656;57.746;11.780;2023-05-20T02:04:53;102963.66;;;10.63;91.07
57827;BME280;43656;57.746;11.780;2023-05-20T02:07:19;102972.56;;;10.73;90.66
57827;BME280;43656;57.746;11.780;2023-05-20T02:09:45;102978.34;;;10.78;91.23
57827;BME280;43656;57.746;11.780;2023-05-20T02:12:11;102972.84;;;10.70;91.14
57827;BME280;43656;57.746;11.780;2023-05-20T02:14:44;102977.78;;;10.75;90.82
57827;BME280;43656;57.746;11.780;2023-05-20T02:17:11;102983.63;;;10.70;91.16
57827;BME280;43656;57.746;11.780;2023-05-20T02:19:36;102988.59;;;10.65;91.14
57827;BME280;43656;57.746;11.780;2023-05-20T02:22:02;102998.06;;;10.69;91.12
57827;BME280;43656;57.746;11.780;2023-05-20T02:24:27;102974.56;;;10.62;91.32
57827;BME280;43656;57.746;11.780;2023-05-20T02:26:53;102995.97;;;10.63;90.93
57827;BME280;43656;57.746;11.780;2023-05-20T02:29:19;102986.19;;;10.52;91.11
57827;BME280;43656;57.746;11.780;2023-05-20T02:31:46;102982.84;;;10.41;91.15
57827;BME280;43656;57.746;11.780;2023-05-20T02:34:14;103002.06;;;10.55;91.43
57827;BME280;43656;57.746;11.780;2023-05-20T02:36:39;102993.44;;;10.52;91.42
57827;BME280;43656;57.746;11.780;2023-05-20T02:39:05;103001.50;;;10.52;90.87
57827;BME280;43656;57.746;11.780;2023-05-20T02:41:31;102992.59;;;10.51;91.15
57827;BME280;43656;57.746;11.780;2023-05-20T02:43:56;102999.41;;;10.46;91.29
57827;BME280;43656;57.746;11.780;2023-05-20T02:46:22;102994.31;;;10.43;90.96
57827;BME280;43656;57.746;11.780;2023-05-20T02:48:47;102997.72;;;10.45;91.42
57827;BME280;43656;57.746;11.780;2023-05-20T02:51:13;102995.72;;;10.47;90.72
57827;BME280;43656;57.746;11.780;2023-05-20T02:53:38;103001.97;;;10.47;91.02
57827;BME280;43656;57.746;11.780;2023-05-20T02:56:04;102988.63;;;10.46;90.27
57827;BME280;43656;57.746;11.780;2023-05-20T02:58:29;102974.34;;;10.35;90.29
57827;BME280;43656;57.746;11.780;2023-05-20T03:00:55;102985.50;;;10.60;90.26
57827;BME280;43656;57.746;11.780;2023-05-20T03:03:23;102998.72;;;10.91;89.20
57827;BME280;43656;57.746;11.780;2023-05-20T03:05:49;102991.22;;;11.12;88.40
57827;BME280;43656;57.746;11.780;2023-05-20T03:08:19;102967.19;;;11.28;87.33
57827;BME280;43656;57.746;11.780;2023-05-20T03:10:44;102974.41;;;11.56;86.34
57827;BME280;43656;57.746;11.780;2023-05-20T03:13:11;102996.38;;;11.79;85.93
57827;BME280;43656;57.746;11.780;2023-05-20T03:15:42;102999.41;;;12.11;85.42
57827;BME280;43656;57.746;11.780;2023-05-20T03:18:09;102999.31;;;12.39;83.98
57827;BME280;43656;57.746;11.780;2023-05-20T03:20:35;102976.63;;;12.58;82.86
57827;BME280;43656;57.746;11.780;2023-05-20T03:23:03;102981.44;;;12.98;81.96
57827;BME280;43656;57.746;11.780;2023-05-20T03:25:29;102989.59;;;13.49;81.12
57827;BME280;43656;57.746;11.780;2023-05-20T03:27:55;102984.75;;;13.85;79.75
57827;BME280;43656;57.746;11.780;2023-05-20T03:30:22;102987.13;;;14.21;78.29
57827;BME280;43656;57.746;11.780;2023-05-20T03:32:48;102993.03;;;14.49;77.33
57827;BME280;43656;57.746;11.780;2023-05-20T03:35:14;102986.38;;;14.84;76.30
57827;BME280;43656;57.746;11.780;2023-05-20T03:37:40;102986.97;;;15.11;75.15
57827;BME280;43656;57.746;11.780;2023-05-20T03:40:06;102976.19;;;15.25;73.88
57827;BME280;43656;57.746;11.780;2023-05-20T03:42:32;102986.59;;;15.53;73.00
57827;BME280;43656;57.746;11.780;2023-05-20T03:44:58;102992.31;;;15.89;72.02
57827;BME280;43656;57.746;11.780;2023-05-20T03:47:25;102986.25;;;16.02;70.80
57827;BME280;43656;57.746;11.780;2023-05-20T03:49:51;102993.97;;;16.13;70.25
57827;BME280;43656;57.746;11.780;2023-05-20T03:52:16;102993.47;;;16.33;68.87
57827;BME280;43656;57.746;11.780;2023-05-20T03:54:42;102998.09;;;16.47;68.71
57827;BME280;43656;57.746;11.780;2023-05-20T03:57:07;102970.91;;;16.62;68.02
57827;BME280;43656;57.746;11.780;2023-05-20T03:59:35;102983.78;;;16.98;67.16
57827;BME280;43656;57.746;11.780;2023-05-20T04:02:01;102989.31;;;17.19;66.22
57827;BME280;43656;57.746;11.780;2023-05-20T04:04:26;102988.00;;;17.30;65.98
57827;BME280;43656;57.746;11.780;2023-05-20T04:06:52;102987.63;;;17.54;65.02
57827;BME280;43656;57.746;11.780;2023-05-20T04:09:18;102987.31;;;17.64;64.44
57827;BME280;43656;57.746;11.780;2023-05-20T04:11:44;102989.03;;;17.65;64.08
57827;BME280;43656;57.746;11.780;2023-05-20T04:14:10;102995.28;;;18.02;63.67
57827;BME280;43656;57.746;11.780;2023-05-20T04:16:35;102996.53;;;18.27;62.82
57827;BME280;43656;57.746;11.780;2023-05-20T04:19:02;102995.34;;;18.58;61.68
57827;BME280;43656;57.746;11.780;2023-05-20T04:21:28;102975.81;;;18.89;60.34
57827;BME280;43656;57.746;11.780;2023-05-20T04:23:53;102991.88;;;19.12;59.49
57827;BME280;43656;57.746;11.780;2023-05-20T04:26:19;102974.75;;;19.32;58.78
57827;BME280;43656;57.746;11.780;2023-05-20T04:28:45;102999.19;;;19.60;58.11
57827;BME280;43656;57.746;11.780;2023-05-20T04:31:13;103001.84;;;20.01;56.92
57827;BME280;43656;57.746;11.780;2023-05-20T04:33:38;102995.94;;;19.78;56.73
57827;BME280;43656;57.746;11.780;2023-05-20T04:36:06;102997.00;;;19.29;57.71
57827;BME280;43656;57.746;11.780;2023-05-20T04:38:32;102998.59;;;19.10;57.75
57827;BME280;43656;57.746;11.780;2023-05-20T04:40:58;102997.00;;;19.29;57.75
57827;BME280;43656;57.746;11.780;2023-05-20T04:43:25;102996.63;;;19.45;57.43
57827;BME280;43656;57.746;11.780;2023-05-20T04:45:51;102989.66;;;19.97;56.51
57827;BME280;43656;57.746;11.780;2023-05-20T04:48:19;102973.25;;;20.30;55.62
57827;BME280;43656;57.746;11.780;2023-05-20T04:50:46;103003.75;;;20.54;54.93
57827;BME280;43656;57.746;11.780;2023-05-20T04:53:13;102998.88;;;19.89;55.76
57827;BME280;43656;57.746;11.780;2023-05-20T04:55:38;103002.22;;;19.78;56.52
57827;BME280;43656;57.746;11.780;2023-05-20T04:58:04;102998.28;;;20.07;56.10
57827;BME280;43656;57.746;11.780;2023-05-20T05:00:30;102993.66;;;20.28;55.55
57827;BME280;43656;57.746;11.780;2023-05-20T05:02:55;102996.41;;;20.54;54.96
57827;BME280;43656;57.746;11.780;2023-05-20T05:05:20;102992.16;;;20.32;55.63
57827;BME280;43656;57.746;11.780;2023-05-20T05:07:46;102997.44;;;20.20;56.05
57827;BME280;43656;57.746;11.780;2023-05-20T05:10:11;103000.19;;;20.13;56.49
57827;BME280;43656;57.746;11.780;2023-05-20T05:12:37;103001.63;;;20.09;57.30
57827;BME280;43656;57.746;11.780;2023-05-20T05:15:03;102998.69;;;20.17;57.13
57827;BME280;43656;57.746;11.780;2023-05-20T05:17:28;103003.09;;;20.45;56.45
57827;BME280;43656;57.746;11.780;2023-05-20T05:19:54;103007.09;;;20.42;56.78
57827;BME280;43656;57.746;11.780;2023-05-20T05:22:19;103005.66;;;20.40;56.99
57827;BME280;43656;57.746;11.780;2023-05-20T05:24:45;103007.72;;;20.25;57.22
57827;BME280;43656;57.746;11.780;2023-05-20T05:27:10;102990.66;;;19.83;57.99
57827;BME280;43656;57.746;11.780;2023-05-20T05:29:36;103005.63;;;19.87;58.30
57827;BME280;43656;57.746;11.780;2023-05-20T05:32:01;103007.69;;;19.78;59.28
57827;BME280;43656;57.746;11.780;2023-05-20T05:34:26;103000.38;;;19.31;59.74
57827;BME280;43656;57.746;11.780;2023-05-20T05:36:52;102992.06;;;19.04;60.71
57827;BME280;43656;57.746;11.780;2023-05-20T05:39:17;103013.31;;;18.52;62.92
57827;BME280;43656;57.746;11.780;2023-05-20T05:41:43;103006.69;;;18.12;65.18
57827;BME280;43656;57.746;11.780;2023-05-20T05:44:08;103008.06;;;18.01;65.85
57827;BME280;43656;57.746;11.780;2023-05-20T05:46:34;103005.81;;;17.69;66.55
57827;BME280;43656;57.746;11.780;2023-05-20T05:48:59;103003.47;;;17.66;67.52
57827;BME280;43656;57.746;11.780;2023-05-20T05:51:26;103005.78;;;17.47;68.83
57827;BME280;43656;57.746;11.780;2023-05-20T05:53:53;103003.88;;;17.48;69.20
57827;BME280;43656;57.746;11.780;2023-05-20T05:56:18;102998.81;;;17.45;68.59
57827;BME280;43656;57.746;11.780;2023-05-20T05:58:44;102999.72;;;17.30;69.05
57827;BME280;43656;57.746;11.780;2023-05-20T06:01:09;102997.56;;;17.26;69.43
57827;BME280;43656;57.746;11.780;2023-05-20T06:03:35;102981.31;;;17.32;70.06
57827;BME280;43656;57.746;11.780;2023-05-20T06:06:01;102994.34;;;17.37;70.74
57827;BME280;43656;57.746;11.780;2023-05-20T06:08:26;102984.81;;;17.63;70.35
57827;BME280;43656;57.746;11.780;2023-05-20T06:10:52;102995.94;;;17.82;70.17
57827;BME280;43656;57.746;11.780;2023-05-20T06:13:17;102996.69;;;17.98;69.05
57827;BME280;43656;57.746;11.780;2023-05-20T06:15:43;102982.69;;;18.01;68.58
57827;BME280;43656;57.746;11.780;2023-05-20T06:18:11;102993.84;;;18.06;67.91
57827;BME280;43656;57.746;11.780;2023-05-20T06:20:37;102999.31;;;18.06;67.21
57827;BME280;43656;57.746;11.780;2023-05-20T06:23:04;102977.13;;;17.88;66.75
57827;BME280;43656;57.746;11.780;2023-05-20T06:25:29;102995.53;;;18.28;66.10
57827;BME280;43656;57.746;11.780;2023-05-20T06:27:54;102996.22;;;18.37;65.52
57827;BME280;43656;57.746;11.780;2023-05-20T06:30:20;103002.41;;;18.52;64.45
57827;BME280;43656;57.746;11.780;2023-05-20T06:32:45;103003.59;;;18.43;64.19
57827;BME280;43656;57.746;11.780;2023-05-20T06:35:11;102999.16;;;18.70;63.32
57827;BME280;43656;57.746;11.780;2023-05-20T06:37:36;102983.19;;;18.95;62.43
57827;BME280;43656;57.746;11.780;2023-05-20T06:40:02;102996.19;;;18.93;61.69
57827;BME280;43656;57.746;11.780;2023-05-20T06:42:27;102974.81;;;18.97;61.32
57827;BME280;43656;57.746;11.780;2023-05-20T06:44:53;102983.44;;;19.07;61.21
57827;BME280;43656;57.746;11.780;2023-05-20T06:47:19;102981.22;;;19.17;60.21
57827;BME280;43656;57.746;11.780;2023-05-20T06:49:45;102986.91;;;19.29;59.70
57827;BME280;43656;57.746;11.780;2023-05-20T06:52:10;102986.09;;;19.29;61.06
57827;BME280;43656;57.746;11.780;2023-05-20T06:54:38;102988.63;;;19.37;59.79
57827;BME280;43656;57.746;11.780;2023-05-20T06:57:08;102979.06;;;19.61;58.67
57827;BME280;43656;57.746;11.780;2023-05-20T06:59:35;102976.44;;;19.39;58.51
57827;BME280;43656;57.746;11.780;2023-05-20T07:02:01;102978.59;;;19.51;58.23
57827;BME280;43656;57.746;11.780;2023-05-20T07:04:27;102967.03;;;19.48;57.94
57827;BME280;43656;57.746;11.780;2023-05-20T07:06:53;102981.50;;;19.42;56.85
57827;BME280;43656;57.746;11.780;2023-05-20T07:09:19;102985.63;;;19.18;57.15
57827;BME280;43656;57.746;11.780;2023-05-20T07:11:44;102978.16;;;19.40;56.73
57827;BME280;43656;57.746;11.780;2023-05-20T07:14:10;102983.66;;;19.54;56.15
57827;BME280;43656;57.746;11.780;2023-05-20T07:16:36;102973.38;;;19.62;55.64
57827;BME280;43656;57.746;11.780;2023-05-20T07:19:02;102978.81;;;19.62;55.87
57827;BME280;43656;57.746;11.780;2023-05-20T07:21:28;102977.63;;;19.65;55.28
57827;BME280;43656;57.746;11.780;2023-05-20T07:23:53;102958.13;;;19.94;54.72
57827;BME280;43656;57.746;11.780;2023-05-20T07:26:19;102958.75;;;20.16;53.92
57827;BME280;43656;57.746;11.780;2023-05-20T07:28:45;102964.84;;;20.05;53.53
57827;BME280;43656;57.746;11.780;2023-05-20T07:31:11;102962.09;;;20.12;53.33
57827;BME280;43656;57.746;11.780;2023-05-20T07:33:37;102941.28;;;20.11;52.95
57827;BME280;43656;57.746;11.780;2023-05-20T07:36:03;102959.56;;;20.37;52.90
57827;BME280;43656;57.746;11.780;2023-05-20T07:38:29;102955.34;;;20.48;52.46
57827;BME280;43656;57.746;11.780;2023-05-20T07:40:54;102943.16;;;20.57;52.21
57827;BME280;43656;57.746;11.780;2023-05-20T07:43:20;102934.72;;;20.58;51.62
57827;BME280;43656;57.746;11.780;2023-05-20T07:45:45;102950.91;;;20.73;51.95
57827;BME280;43656;57.746;11.780;2023-05-20T07:48:11;102953.00;;;20.71;51.85
57827;BME280;43656;57.746;11.780;2023-05-20T07:50:37;102943.25;;;20.88;51.80
57827;BME280;43656;57.746;11.780;2023-05-20T07:53:04;102938.47;;;20.77;50.56
57827;BME280;43656;57.746;11.780;2023-05-20T07:55:32;102935.34;;;20.74;50.19
57827;BME280;43656;57.746;11.780;2023-05-20T07:57:58;102942.09;;;20.64;49.92
57827;BME280;43656;57.746;11.780;2023-05-20T08:00:23;102883.16;;;20.62;49.49
57827;BME280;43656;57.746;11.780;2023-05-20T08:02:49;102947.00;;;21.01;48.92
57827;BME280;43656;57.746;11.780;2023-05-20T08:05:14;102944.03;;;21.09;48.87
57827;BME280;43656;57.746;11.780;2023-05-20T08:07:40;102938.91;;;21.26;48.60
57827;BME280;43656;57.746;11.780;2023-05-20T08:10:06;102945.03;;;21.21;48.04
57827;BME280;43656;57.746;11.780;2023-05-20T08:12:31;102942.53;;;21.20;48.17
57827;BME280;43656;57.746;11.780;2023-05-20T08:14:57;102930.97;;;21.11;47.76
57827;BME280;43656;57.746;11.780;2023-05-20T08:17:22;102915.13;;;21.20;48.32
57827;BME280;43656;57.746;11.780;2023-05-20T08:19:48;102926.38;;;21.50;47.86
57827;BME280;43656;57.746;11.780;2023-05-20T08:22:13;102934.19;;;21.46;47.89
57827;BME280;43656;57.746;11.780;2023-05-20T08:24:38;102924.69;;;21.42;47.60
57827;BME280;43656;57.746;11.780;2023-05-20T08:27:04;102918.97;;;21.50;47.20
57827;BME280;43656;57.746;11.780;2023-05-20T08:29:31;102927.91;;;21.96;47.70
57827;BME280;43656;57.746;11.780;2023-05-20T08:31:56;102912.25;;;22.03;47.06
57827;BME280;43656;57.746;11.780;2023-05-20T08:34:22;102920.75;;;21.95;47.33
57827;BME280;43656;57.746;11.780;2023-05-20T08:36:47;102917.19;;;22.19;46.89
57827;BME280;43656;57.746;11.780;2023-05-20T08:39:13;102913.25;;;22.34;46.88
57827;BME280;43656;57.746;11.780;2023-05-20T08:41:39;102911.56;;;22.51;46.22
57827;BME280;43656;57.746;11.780;2023-05-20T08:44:07;102908.22;;;22.67;46.29
57827;BME280;43656;57.746;11.780;2023-05-20T08:46:34;102893.63;;;22.55;46.32
57827;BME280;43656;57.746;11.780;2023-05-20T08:49:01;102903.81;;;22.66;46.65
57827;BME280;43656;57.746;11.780;2023-05-20T08:51:27;102890.31;;;22.65;46.41
57827;BME280;43656;57.746;11.780;2023-05-20T08:53:53;102888.63;;;22.82;46.56
57827;BME280;43656;57.746;11.780;2023-05-20T08:56:19;102903.44;;;23.00;46.26
57827;BME280;43656;57.746;11.780;2023-05-20T08:58:46;102901.06;;;23.03;46.08
57827;BME280;43656;57.746;11.780;2023-05-20T09:01:11;102902.06;;;23.20;45.96
57827;BME280;43656;57.746;11.780;2023-05-20T09:03:37;102901.66;;;23.05;45.25
57827;BME280;43656;57.746;11.780;2023-05-20T09:06:04;102891.97;;;22.84;45.00
57827;BME280;43656;57.746;11.780;2023-05-20T09:08:30;102870.88;;;22.85;45.35
57827;BME280;43656;57.746;11.780;2023-05-20T09:10:55;102886.25;;;22.86;44.41
57827;BME280;43656;57.746;11.780;2023-05-20T09:13:23;102886.34;;;22.79;44.39
57827;BME280;43656;57.746;11.780;2023-05-20T09:15:48;102885.88;;;23.01;44.99
57827;BME280;43656;57.746;11.780;2023-05-20T09:18:14;102882.34;;;23.12;43.63
57827;BME280;43656;57.746;11.780;2023-05-20T09:20:40;102861.13;;;23.31;44.04
57827;BME280;43656;57.746;11.780;2023-05-20T09:23:08;102878.28;;;23.56;43.89
57827;BME280;43656;57.746;11.780;2023-05-20T09:25:35;102862.72;;;23.38;44.22
57827;BME280;43656;57.746;11.780;2023-05-20T09:28:06;102871.13;;;23.67;42.30
57827;BME280;43656;57.746;11.780;2023-05-20T09:30:32;102869.63;;;23.71;41.83
57827;BME280;43656;57.746;11.780;2023-05-20T09:32:58;102872.53;;;23.88;41.47
57827;BME280;43656;57.746;11.780;2023-05-20T09:35:26;102860.56;;;24.06;41.72
57827;BME280;43656;57.746;11.780;2023-05-20T09:37:53;102872.13;;;24.31;41.03
57827;BME280;43656;57.746;11.780;2023-05-20T09:40:28;102873.69;;;24.15;40.81
57827;BME280;43656;57.746;11.780;2023-05-20T09:45:19;102861.81;;;23.56;47.15
57827;BME280;43656;57.746;11.780;2023-05-20T09:47:46;102872.59;;;23.70;47.65
57827;BME280;43656;57.746;11.780;2023-05-20T09:50:13;102864.75;;;23.43;48.84
57827;BME280;43656;57.746;11.780;2023-05-20T09:52:39;102841.06;;;23.18;48.30
57827;BME280;43656;57.746;11.780;2023-05-20T09:55:06;102864.44;;;23.51;47.83
57827;BME280;43656;57.746;11.780;2023-05-20T09:57:35;102862.81;;;23.85;47.10
57827;BME280;43656;57.746;11.780;2023-05-20T10:00:02;102864.22;;;23.64;46.00
57827;BME280;43656;57.746;11.780;2023-05-20T10:02:37;102859.38;;;23.78;47.64
57827;BME280;43656;57.746;11.780;2023-05-20T10:05:11;102850.81;;;23.14;52.86
57827;BME280;43656;57.746;11.780;2023-05-20T10:10:48;102854.75;;;21.96;59.24
57827;BME280;43656;57.746;11.780;2023-05-20T10:16:35;102852.31;;;21.63;62.42
57827;BME280;43656;57.746;11.780;2023-05-20T10:21:33;102849.72;;;21.43;64.18
57827;BME280;43656;57.746;11.780;2023-05-20T10:24:06;102843.59;;;21.41;65.27
57827;BME280;43656;57.746;11.780;2023-05-20T10:26:39;102835.03;;;20.99;68.25
57827;BME280;43656;57.746;11.780;2023-05-20T10:31:48;102841.59;;;20.33;72.55
57827;BME280;43656;57.746;11.780;2023-05-20T10:34:18;102848.06;;;20.39;72.97
57827;BME280;43656;57.746;11.780;2023-05-20T10:36:57;102856.06;;;20.54;72.03
57827;BME280;43656;57.746;11.780;2023-05-20T10:39:30;102859.19;;;21.02;70.29
57827;BME280;43656;57.746;11.780;2023-05-20T10:42:10;102853.91;;;21.07;67.61
57827;BME280;43656;57.746;11.780;2023-05-20T10:44:46;102842.59;;;20.97;66.23
57827;BME280;43656;57.746;11.780;2023-05-20T10:47:12;102843.66;;;21.28;64.93
57827;BME280;43656;57.746;11.780;2023-05-20T10:49:44;102848.03;;;21.67;62.65
57827;BME280;43656;57.746;11.780;2023-05-20T10:52:12;102846.91;;;21.75;61.02
57827;BME280;43656;57.746;11.780;2023-05-20T10:54:54;102844.16;;;22.00;58.55
57827;BME280;43656;57.746;11.780;2023-05-20T10:57:21;102847.94;;;21.80;58.48
57827;BME280;43656;57.746;11.780;2023-05-20T10:59:48;102843.25;;;21.63;58.23
57827;BME280;43656;57.746;11.780;2023-05-20T11:02:16;102846.53;;;21.71;58.03
57827;BME280;43656;57.746;11.780;2023-05-20T11:04:42;102834.22;;;21.80;56.79
57827;BME280;43656;57.746;11.780;2023-05-20T11:07:08;102843.13;;;21.76;56.69
57827;BME280;43656;57.746;11.780;2023-05-20T11:09:34;102832.00;;;21.71;55.81
57827;BME280;43656;57.746;11.780;2023-05-20T11:12:00;102810.00;;;21.77;55.07
57827;BME280;43656;57.746;11.780;2023-05-20T11:14:29;102848.84;;;22.18;53.46
57827;BME280;43656;57.746;11.780;2023-05-20T11:16:56;102849.84;;;21.98;53.92
57827;BME280;43656;57.746;11.780;2023-05-20T11:19:22;102831.53;;;21.74;53.90
57827;BME280;43656;57.746;11.780;2023-05-20T11:21:48;102820.06;;;21.58;54.08
57827;BME280;43656;57.746;11.780;2023-05-20T11:24:14;102828.25;;;21.40;53.79
57827;BME280;43656;57.746;11.780;2023-05-20T11:26:46;102822.22;;;21.25;54.45
57827;BME280;43656;57.746;11.780;2023-05-20T11:29:11;102816.69;;;21.31;55.12
57827;BME280;43656;57.746;11.780;2023-05-20T11:31:37;102820.59;;;21.74;53.64
57827;BME280;43656;57.746;11.780;2023-05-20T11:34:04;102823.25;;;21.55;55.32
57827;BME280;43656;57.746;11.780;2023-05-20T11:36:30;102821.91;;;21.65;55.38
57827;BME280;43656;57.746;11.780;2023-05-20T11:38:56;102815.59;;;21.64;54.16
57827;BME280;43656;57.746;11.780;2023-05-20T11:41:24;102807.47;;;21.26;55.05
57827;BME280;43656;57.746;11.780;2023-05-20T11:43:57;102810.31;;;21.44;54.90
57827;BME280;43656;57.746;11.780;2023-05-20T11:46:23;102801.47;;;21.10;56.97
57827;BME280;43656;57.746;11.780;2023-05-20T11:48:53;102797.06;;;21.09;57.09
57827;BME280;43656;57.746;11.780;2023-05-20T11:51:29;102809.69;;;21.42;56.37
57827;BME280;43656;57.746;11.780;2023-05-20T11:54:01;102775.34;;;21.65;55.15
57827;BME280;43656;57.746;11.780;2023-05-20T11:56:28;102793.81;;;21.94;54.78
57827;BME280;43656;57.746;11.780;2023-05-20T11:58:59;102780.41;;;22.04;54.10
57827;BME280;43656;57.746;11.780;2023-05-20T12:01:25;102786.03;;;22.16;53.58
57827;BME280;43656;57.746;11.780;2023-05-20T12:03:52;102795.50;;;22.50;52.84
57827;BME280;43656;57.746;11.780;2023-05-20T12:06:18;102795.59;;;22.44;51.47
57827;BME280;43656;57.746;11.780;2023-05-20T12:08:44;102793.94;;;22.43;51.15
57827;BME280;43656;57.746;11.780;2023-05-20T12:11:09;102783.34;;;22.28;50.84
57827;BME280;43656;57.746;11.780;2023-05-20T12:13:35;102788.34;;;22.49;50.21
57827;BME280;43656;57.746;11.780;2023-05-20T12:16:00;102795.53;;;22.32;51.20
57827;BME280;43656;57.746;11.780;2023-05-20T12:18:26;102801.75;;;22.02;52.31
57827;BME280;43656;57.746;11.780;2023-05-20T12:20:51;102794.88;;;22.12;52.18
57827;BME280;43656;57.746;11.780;2023-05-20T12:23:17;102803.03;;;22.00;52.03
57827;BME280;43656;57.746;11.780;2023-05-20T12:25:43;102794.84;;;22.18;51.72
57827;BME280;43656;57.746;11.780;2023-05-20T12:28:09;102804.88;;;22.06;51.94
57827;BME280;43656;57.746;11.780;2023-05-20T12:30:35;102788.41;;;21.88;52.49
57827;BME280;43656;57.746;11.780;2023-05-20T12:33:00;102801.69;;;22.09;51.97
57827;BME280;43656;57.746;11.780;2023-05-20T12:35:41;102785.38;;;22.14;49.84
57827;BME280;43656;57.746;11.780;2023-05-20T12:38:07;102787.34;;;22.07;50.64
57827;BME280;43656;57.746;11.780;2023-05-20T12:40:34;102792.94;;;21.75;51.78
57827;BME280;43656;57.746;11.780;2023-05-20T12:43:01;102787.44;;;21.82;51.63
57827;BME280;43656;57.746;11.780;2023-05-20T12:45:27;102777.50;;;21.81;50.69
57827;BME280;43656;57.746;11.780;2023-05-20T12:47:53;102781.94;;;22.00;50.05
57827;BME280;43656;57.746;11.780;2023-05-20T12:50:19;102779.72;;;21.91;49.55